Michalis L — A8TZ8 — position and weather

sailwx.info

Track history (hours):
 
Tides and Currents Weather Stations Pressure Air Temp Water Temp Dewpoint Dewpoint Depression Visibility Wind Speed Wind Dir Waves Ship Positions

Michalis L

Last reported at 2015-May-20 03:31 UTC. Time now 2015-May-25 09:33 UTC.
Position S 29°44' E 031°42'.

Length 230 m; draft 12.4 m.

Type: Cargo ship. MMSI: 636014462.

Date/timePositionNaut miles runAvg speedWind from/ knotsBaromVisibWave heightAir tempDewpointWater temp
2015-May-20 03:31S 29°44' E 031°42'1111.4
2015-May-20 02:34S 29°47' E 031°30'1313.4
2015-May-20 01:33S 29°50' E 031°15'6 6.1
2015-May-20 00:34S 29°52' E 031°08'1 0.8
2015-May-19 23:33S 29°52' E 031°08'0 0.1
2015-May-19 22:33S 29°52' E 031°08'2 1.9
2015-May-19 21:33S 29°54' E 031°08'1413.7
2015-May-19 20:33S 30°08' E 031°07'1212.0
2015-May-19 19:32S 30°19' E 031°02'1111.3
2015-May-19 18:33S 30°30' E 030°58'1111.0
2015-May-19 17:33S 30°40' E 030°54'1110.7
2015-May-19 16:33S 30°51' E 030°51'1110.9
2015-May-19 15:33S 31°01' E 030°48'10 9.9
2015-May-19 14:33S 31°10' E 030°42'1111.4
2015-May-19 13:33S 31°18' E 030°33'1111.5
2015-May-19 12:33S 31°26' E 030°23'6712.5
2015-May-19 07:12S 32°16' E 029°30'12411.6
2015-May-18 20:31S 33°46' E 027°50'  
Track history (hours):
 
Tides and Currents Weather Stations Pressure Air Temp Water Temp Dewpoint Dewpoint Depression Visibility Wind Speed Wind Dir Waves Ship Positions

Michalis L

Last reported at 2015-May-20 03:31 UTC. Time now 2015-May-25 09:33 UTC.
Position S 29°44' E 031°42'.

Length 230 m; draft 12.4 m.

Type: Cargo ship. MMSI: 636014462.

Date/timePositionNaut miles runAvg speedWind from/ knotsBaromVisibWave heightAir tempDewpointWater temp
2015-May-20 03:31S 29°44' E 031°42'1111.4
2015-May-20 02:34S 29°47' E 031°30'1313.4
2015-May-20 01:33S 29°50' E 031°15'6 6.1
2015-May-20 00:34S 29°52' E 031°08'1 0.8
2015-May-19 23:33S 29°52' E 031°08'0 0.1
2015-May-19 22:33S 29°52' E 031°08'2 1.9
2015-May-19 21:33S 29°54' E 031°08'1413.7
2015-May-19 20:33S 30°08' E 031°07'1212.0
2015-May-19 19:32S 30°19' E 031°02'1111.3
2015-May-19 18:33S 30°30' E 030°58'1111.0
2015-May-19 17:33S 30°40' E 030°54'1110.7
2015-May-19 16:33S 30°51' E 030°51'1110.9
2015-May-19 15:33S 31°01' E 030°48'10 9.9
2015-May-19 14:33S 31°10' E 030°42'1111.4
2015-May-19 13:33S 31°18' E 030°33'1111.5
2015-May-19 12:33S 31°26' E 030°23'6712.5
2015-May-19 07:12S 32°16' E 029°30'12411.6
2015-May-18 20:31S 33°46' E 027°50'  

Dump ship's entire track history